sensor_id;sensor_type;location;lat;lon;timestamp;P1;durP1;ratioP1;P2;durP2;ratioP2
68089;SDS011;54880;50.986;6.990;2023-12-14T00:01:26;21.43;;;9.20;;
68089;SDS011;54880;50.986;6.990;2023-12-14T00:03:51;22.90;;;9.33;;
68089;SDS011;54880;50.986;6.990;2023-12-14T00:06:16;27.97;;;10.70;;
68089;SDS011;54880;50.986;6.990;2023-12-14T00:08:41;25.57;;;12.03;;
68089;SDS011;54880;50.986;6.990;2023-12-14T00:11:07;25.23;;;11.00;;
68089;SDS011;54880;50.986;6.990;2023-12-14T00:13:33;24.70;;;10.73;;
68089;SDS011;54880;50.986;6.990;2023-12-14T00:15:58;25.83;;;10.37;;
68089;SDS011;54880;50.986;6.990;2023-12-14T00:18:24;25.77;;;11.17;;
68089;SDS011;54880;50.986;6.990;2023-12-14T00:20:49;24.23;;;11.20;;
68089;SDS011;54880;50.986;6.990;2023-12-14T00:23:14;26.42;;;11.40;;
68089;SDS011;54880;50.986;6.990;2023-12-14T00:25:39;24.60;;;10.88;;
68089;SDS011;54880;50.986;6.990;2023-12-14T00:28:05;26.48;;;12.30;;
68089;SDS011;54880;50.986;6.990;2023-12-14T00:30:30;24.60;;;10.50;;
68089;SDS011;54880;50.986;6.990;2023-12-14T00:32:55;27.67;;;12.00;;
68089;SDS011;54880;50.986;6.990;2023-12-14T00:35:20;26.77;;;11.50;;
68089;SDS011;54880;50.986;6.990;2023-12-14T00:37:46;25.30;;;11.60;;
68089;SDS011;54880;50.986;6.990;2023-12-14T00:40:11;29.60;;;11.80;;
68089;SDS011;54880;50.986;6.990;2023-12-14T00:42:36;26.80;;;11.57;;
68089;SDS011;54880;50.986;6.990;2023-12-14T00:45:02;26.77;;;11.80;;
68089;SDS011;54880;50.986;6.990;2023-12-14T00:47:27;29.37;;;12.00;;
68089;SDS011;54880;50.986;6.990;2023-12-14T00:49:52;26.03;;;12.00;;
68089;SDS011;54880;50.986;6.990;2023-12-14T00:52:18;33.35;;;12.50;;
68089;SDS011;54880;50.986;6.990;2023-12-14T00:54:43;28.83;;;12.50;;
68089;SDS011;54880;50.986;6.990;2023-12-14T00:57:09;27.97;;;12.87;;
68089;SDS011;54880;50.986;6.990;2023-12-14T00:59:34;27.50;;;12.80;;
68089;SDS011;54880;50.986;6.990;2023-12-14T01:01:59;31.23;;;12.77;;
68089;SDS011;54880;50.986;6.990;2023-12-14T01:04:24;25.43;;;11.83;;
68089;SDS011;54880;50.986;6.990;2023-12-14T01:06:50;30.43;;;14.00;;
68089;SDS011;54880;50.986;6.990;2023-12-14T01:09:15;25.90;;;12.57;;
68089;SDS011;54880;50.986;6.990;2023-12-14T01:11:40;33.83;;;14.57;;
68089;SDS011;54880;50.986;6.990;2023-12-14T01:14:05;33.40;;;13.97;;
68089;SDS011;54880;50.986;6.990;2023-12-14T01:16:31;31.30;;;14.43;;
68089;SDS011;54880;50.986;6.990;2023-12-14T01:18:56;28.83;;;14.03;;
68089;SDS011;54880;50.986;6.990;2023-12-14T01:21:21;32.33;;;15.00;;
68089;SDS011;54880;50.986;6.990;2023-12-14T01:23:46;32.30;;;15.73;;
68089;SDS011;54880;50.986;6.990;2023-12-14T01:26:11;32.27;;;14.83;;
68089;SDS011;54880;50.986;6.990;2023-12-14T01:28:37;34.17;;;15.50;;
68089;SDS011;54880;50.986;6.990;2023-12-14T01:31:02;32.77;;;15.17;;
68089;SDS011;54880;50.986;6.990;2023-12-14T01:33:27;36.73;;;15.40;;
68089;SDS011;54880;50.986;6.990;2023-12-14T01:35:52;32.27;;;13.63;;
68089;SDS011;54880;50.986;6.990;2023-12-14T01:38:18;34.20;;;14.53;;
68089;SDS011;54880;50.986;6.990;2023-12-14T01:40:43;30.77;;;13.27;;
68089;SDS011;54880;50.986;6.990;2023-12-14T01:43:08;36.80;;;14.40;;
68089;SDS011;54880;50.986;6.990;2023-12-14T01:45:35;32.58;;;13.85;;
68089;SDS011;54880;50.986;6.990;2023-12-14T01:48:00;37.50;;;15.30;;
68089;SDS011;54880;50.986;6.990;2023-12-14T01:50:26;34.87;;;14.70;;
68089;SDS011;54880;50.986;6.990;2023-12-14T01:52:51;34.93;;;14.23;;
68089;SDS011;54880;50.986;6.990;2023-12-14T01:55:16;34.87;;;14.47;;
68089;SDS011;54880;50.986;6.990;2023-12-14T01:57:42;34.57;;;15.50;;
68089;SDS011;54880;50.986;6.990;2023-12-14T02:00:09;33.92;;;14.85;;
68089;SDS011;54880;50.986;6.990;2023-12-14T02:02:38;40.13;;;15.68;;
68089;SDS011;54880;50.986;6.990;2023-12-14T02:05:05;36.53;;;14.77;;
68089;SDS011;54880;50.986;6.990;2023-12-14T02:07:30;38.67;;;15.48;;
68089;SDS011;54880;50.986;6.990;2023-12-14T02:09:55;35.97;;;15.10;;
68089;SDS011;54880;50.986;6.990;2023-12-14T02:12:20;39.73;;;15.77;;
68089;SDS011;54880;50.986;6.990;2023-12-14T02:14:48;35.97;;;15.77;;
68089;SDS011;54880;50.986;6.990;2023-12-14T02:17:13;33.63;;;14.68;;
68089;SDS011;54880;50.986;6.990;2023-12-14T02:19:38;39.63;;;15.37;;
68089;SDS011;54880;50.986;6.990;2023-12-14T02:22:04;34.20;;;14.93;;
68089;SDS011;54880;50.986;6.990;2023-12-14T02:24:29;36.40;;;15.95;;
68089;SDS011;54880;50.986;6.990;2023-12-14T02:26:54;37.42;;;15.15;;
68089;SDS011;54880;50.986;6.990;2023-12-14T02:29:19;42.20;;;15.70;;
68089;SDS011;54880;50.986;6.990;2023-12-14T02:31:45;39.93;;;16.00;;
68089;SDS011;54880;50.986;6.990;2023-12-14T02:34:11;40.33;;;16.67;;
68089;SDS011;54880;50.986;6.990;2023-12-14T02:36:37;38.57;;;15.63;;
68089;SDS011;54880;50.986;6.990;2023-12-14T02:39:02;39.53;;;16.55;;
68089;SDS011;54880;50.986;6.990;2023-12-14T02:41:27;41.25;;;15.80;;
68089;SDS011;54880;50.986;6.990;2023-12-14T02:43:52;41.93;;;16.43;;
68089;SDS011;54880;50.986;6.990;2023-12-14T02:46:18;41.80;;;16.27;;
68089;SDS011;54880;50.986;6.990;2023-12-14T02:48:43;39.83;;;15.27;;
68089;SDS011;54880;50.986;6.990;2023-12-14T02:51:12;44.77;;;17.17;;
68089;SDS011;54880;50.986;6.990;2023-12-14T02:53:37;39.05;;;15.45;;
68089;SDS011;54880;50.986;6.990;2023-12-14T02:56:02;40.07;;;15.00;;
68089;SDS011;54880;50.986;6.990;2023-12-14T02:58:28;43.63;;;15.63;;
68089;SDS011;54880;50.986;6.990;2023-12-14T03:00:53;39.47;;;15.97;;
68089;SDS011;54880;50.986;6.990;2023-12-14T03:03:18;41.07;;;15.90;;
68089;SDS011;54880;50.986;6.990;2023-12-14T03:05:44;36.03;;;15.07;;
68089;SDS011;54880;50.986;6.990;2023-12-14T03:08:09;34.63;;;14.40;;
68089;SDS011;54880;50.986;6.990;2023-12-14T03:10:34;36.57;;;15.57;;
68089;SDS011;54880;50.986;6.990;2023-12-14T03:12:59;35.37;;;14.00;;
68089;SDS011;54880;50.986;6.990;2023-12-14T03:15:24;33.23;;;14.10;;
68089;SDS011;54880;50.986;6.990;2023-12-14T03:17:50;32.93;;;13.13;;
68089;SDS011;54880;50.986;6.990;2023-12-14T03:20:15;38.60;;;13.30;;
68089;SDS011;54880;50.986;6.990;2023-12-14T03:22:40;33.90;;;14.00;;
68089;SDS011;54880;50.986;6.990;2023-12-14T03:25:06;31.93;;;13.90;;
68089;SDS011;54880;50.986;6.990;2023-12-14T03:27:31;38.50;;;14.67;;
68089;SDS011;54880;50.986;6.990;2023-12-14T03:29:56;34.27;;;13.73;;
68089;SDS011;54880;50.986;6.990;2023-12-14T03:32:22;27.43;;;12.63;;
68089;SDS011;54880;50.986;6.990;2023-12-14T03:34:47;31.37;;;13.77;;
68089;SDS011;54880;50.986;6.990;2023-12-14T03:37:12;32.73;;;13.77;;
68089;SDS011;54880;50.986;6.990;2023-12-14T03:39:37;33.47;;;12.47;;
68089;SDS011;54880;50.986;6.990;2023-12-14T03:42:03;33.97;;;13.90;;
68089;SDS011;54880;50.986;6.990;2023-12-14T03:44:28;31.57;;;13.60;;
68089;SDS011;54880;50.986;6.990;2023-12-14T03:46:53;33.17;;;14.00;;
68089;SDS011;54880;50.986;6.990;2023-12-14T03:49:19;30.08;;;13.57;;
68089;SDS011;54880;50.986;6.990;2023-12-14T03:51:44;36.23;;;14.80;;
68089;SDS011;54880;50.986;6.990;2023-12-14T03:54:09;30.00;;;13.93;;
68089;SDS011;54880;50.986;6.990;2023-12-14T03:56:35;28.10;;;12.17;;
68089;SDS011;54880;50.986;6.990;2023-12-14T03:59:00;28.40;;;12.23;;
68089;SDS011;54880;50.986;6.990;2023-12-14T04:01:26;28.13;;;12.70;;
68089;SDS011;54880;50.986;6.990;2023-12-14T04:03:51;23.63;;;10.90;;
68089;SDS011;54880;50.986;6.990;2023-12-14T04:06:16;27.43;;;10.80;;
68089;SDS011;54880;50.986;6.990;2023-12-14T04:08:41;21.40;;;9.80;;
68089;SDS011;54880;50.986;6.990;2023-12-14T04:11:07;20.90;;;9.73;;
68089;SDS011;54880;50.986;6.990;2023-12-14T04:13:32;22.20;;;10.20;;
68089;SDS011;54880;50.986;6.990;2023-12-14T04:15:57;21.03;;;10.80;;
68089;SDS011;54880;50.986;6.990;2023-12-14T04:18:23;23.87;;;10.27;;
68089;SDS011;54880;50.986;6.990;2023-12-14T04:20:48;21.43;;;10.07;;
68089;SDS011;54880;50.986;6.990;2023-12-14T04:23:13;21.57;;;9.37;;
68089;SDS011;54880;50.986;6.990;2023-12-14T04:25:39;24.30;;;10.60;;
68089;SDS011;54880;50.986;6.990;2023-12-14T04:28:04;23.57;;;10.20;;
68089;SDS011;54880;50.986;6.990;2023-12-14T04:30:29;21.60;;;10.00;;
68089;SDS011;54880;50.986;6.990;2023-12-14T04:32:54;19.90;;;9.67;;
68089;SDS011;54880;50.986;6.990;2023-12-14T04:35:19;21.87;;;10.13;;
68089;SDS011;54880;50.986;6.990;2023-12-14T04:37:47;22.63;;;10.60;;
68089;SDS011;54880;50.986;6.990;2023-12-14T04:40:12;24.57;;;10.07;;
68089;SDS011;54880;50.986;6.990;2023-12-14T04:42:37;25.37;;;11.77;;
68089;SDS011;54880;50.986;6.990;2023-12-14T04:45:03;24.50;;;10.87;;
68089;SDS011;54880;50.986;6.990;2023-12-14T04:47:28;31.13;;;11.87;;
68089;SDS011;54880;50.986;6.990;2023-12-14T04:49:53;27.83;;;12.40;;
68089;SDS011;54880;50.986;6.990;2023-12-14T04:52:19;25.93;;;11.87;;
68089;SDS011;54880;50.986;6.990;2023-12-14T04:54:44;25.83;;;11.50;;
68089;SDS011;54880;50.986;6.990;2023-12-14T04:57:09;28.70;;;12.03;;
68089;SDS011;54880;50.986;6.990;2023-12-14T04:59:34;28.23;;;12.83;;
68089;SDS011;54880;50.986;6.990;2023-12-14T05:02:00;31.73;;;12.55;;
68089;SDS011;54880;50.986;6.990;2023-12-14T05:04:25;30.50;;;12.37;;
68089;SDS011;54880;50.986;6.990;2023-12-14T05:06:50;30.87;;;13.47;;
68089;SDS011;54880;50.986;6.990;2023-12-14T05:09:15;32.37;;;14.07;;
68089;SDS011;54880;50.986;6.990;2023-12-14T05:11:40;32.00;;;13.83;;
68089;SDS011;54880;50.986;6.990;2023-12-14T05:14:06;34.35;;;14.20;;
68089;SDS011;54880;50.986;6.990;2023-12-14T05:16:31;36.00;;;14.10;;
68089;SDS011;54880;50.986;6.990;2023-12-14T05:18:57;37.33;;;14.63;;
68089;SDS011;54880;50.986;6.990;2023-12-14T05:21:22;35.13;;;14.67;;
68089;SDS011;54880;50.986;6.990;2023-12-14T05:23:47;35.47;;;14.77;;
68089;SDS011;54880;50.986;6.990;2023-12-14T05:26:13;43.20;;;16.47;;
68089;SDS011;54880;50.986;6.990;2023-12-14T05:28:38;36.73;;;14.83;;
68089;SDS011;54880;50.986;6.990;2023-12-14T05:31:03;38.40;;;15.43;;
68089;SDS011;54880;50.986;6.990;2023-12-14T05:33:29;38.22;;;14.65;;
68089;SDS011;54880;50.986;6.990;2023-12-14T05:35:56;36.60;;;14.47;;
68089;SDS011;54880;50.986;6.990;2023-12-14T05:38:21;40.70;;;15.87;;
68089;SDS011;54880;50.986;6.990;2023-12-14T05:40:46;40.53;;;15.50;;
68089;SDS011;54880;50.986;6.990;2023-12-14T05:43:12;39.07;;;14.97;;
68089;SDS011;54880;50.986;6.990;2023-12-14T05:45:37;34.38;;;14.77;;
68089;SDS011;54880;50.986;6.990;2023-12-14T05:48:02;35.67;;;14.70;;
68089;SDS011;54880;50.986;6.990;2023-12-14T05:50:30;37.90;;;15.05;;
68089;SDS011;54880;50.986;6.990;2023-12-14T05:52:55;33.45;;;13.73;;
68089;SDS011;54880;50.986;6.990;2023-12-14T05:55:21;37.17;;;13.87;;
68089;SDS011;54880;50.986;6.990;2023-12-14T05:57:47;36.00;;;13.73;;
68089;SDS011;54880;50.986;6.990;2023-12-14T06:00:12;37.30;;;14.18;;
68089;SDS011;54880;50.986;6.990;2023-12-14T06:02:38;40.73;;;17.03;;
68089;SDS011;54880;50.986;6.990;2023-12-14T06:05:03;34.10;;;14.70;;
68089;SDS011;54880;50.986;6.990;2023-12-14T06:07:29;42.03;;;16.95;;
68089;SDS011;54880;50.986;6.990;2023-12-14T06:09:54;39.47;;;17.42;;
68089;SDS011;54880;50.986;6.990;2023-12-14T06:12:19;41.30;;;16.07;;
68089;SDS011;54880;50.986;6.990;2023-12-14T06:14:44;37.67;;;15.30;;
68089;SDS011;54880;50.986;6.990;2023-12-14T06:17:10;46.03;;;16.42;;
68089;SDS011;54880;50.986;6.990;2023-12-14T06:19:35;40.85;;;15.57;;
68089;SDS011;54880;50.986;6.990;2023-12-14T06:22:00;45.07;;;17.60;;
68089;SDS011;54880;50.986;6.990;2023-12-14T06:24:25;46.50;;;18.57;;
68089;SDS011;54880;50.986;6.990;2023-12-14T06:26:51;44.10;;;16.03;;
68089;SDS011;54880;50.986;6.990;2023-12-14T06:29:16;44.23;;;17.67;;
68089;SDS011;54880;50.986;6.990;2023-12-14T06:31:41;41.53;;;16.90;;
68089;SDS011;54880;50.986;6.990;2023-12-14T06:34:07;47.37;;;17.40;;
68089;SDS011;54880;50.986;6.990;2023-12-14T06:36:33;43.50;;;16.33;;
68089;SDS011;54880;50.986;6.990;2023-12-14T06:38:58;40.83;;;16.83;;
68089;SDS011;54880;50.986;6.990;2023-12-14T06:41:24;37.97;;;14.70;;
68089;SDS011;54880;50.986;6.990;2023-12-14T06:43:50;38.17;;;15.23;;
68089;SDS011;54880;50.986;6.990;2023-12-14T06:46:15;34.10;;;12.50;;
68089;SDS011;54880;50.986;6.990;2023-12-14T06:48:40;32.17;;;13.13;;
68089;SDS011;54880;50.986;6.990;2023-12-14T06:51:06;32.50;;;12.47;;
68089;SDS011;54880;50.986;6.990;2023-12-14T06:53:31;30.23;;;12.40;;
68089;SDS011;54880;50.986;6.990;2023-12-14T06:55:56;29.37;;;11.60;;
68089;SDS011;54880;50.986;6.990;2023-12-14T06:58:22;27.70;;;11.70;;
68089;SDS011;54880;50.986;6.990;2023-12-14T07:00:47;28.63;;;10.47;;
68089;SDS011;54880;50.986;6.990;2023-12-14T07:03:12;22.67;;;9.15;;
68089;SDS011;54880;50.986;6.990;2023-12-14T07:05:38;25.83;;;9.98;;
68089;SDS011;54880;50.986;6.990;2023-12-14T07:08:03;26.20;;;10.63;;
68089;SDS011;54880;50.986;6.990;2023-12-14T07:10:28;25.73;;;10.03;;
68089;SDS011;54880;50.986;6.990;2023-12-14T07:12:54;33.57;;;12.27;;
68089;SDS011;54880;50.986;6.990;2023-12-14T07:15:19;32.27;;;11.73;;
68089;SDS011;54880;50.986;6.990;2023-12-14T07:17:44;33.30;;;12.20;;
68089;SDS011;54880;50.986;6.990;2023-12-14T07:20:10;29.00;;;11.77;;
68089;SDS011;54880;50.986;6.990;2023-12-14T07:22:35;33.13;;;12.38;;
68089;SDS011;54880;50.986;6.990;2023-12-14T07:25:00;29.27;;;11.33;;
68089;SDS011;54880;50.986;6.990;2023-12-14T07:27:25;26.10;;;10.30;;
68089;SDS011;54880;50.986;6.990;2023-12-14T07:29:51;26.40;;;10.52;;
68089;SDS011;54880;50.986;6.990;2023-12-14T07:32:16;36.57;;;13.20;;
68089;SDS011;54880;50.986;6.990;2023-12-14T07:34:41;39.67;;;14.53;;
68089;SDS011;54880;50.986;6.990;2023-12-14T07:37:07;47.90;;;16.17;;
68089;SDS011;54880;50.986;6.990;2023-12-14T07:39:32;44.73;;;16.57;;
68089;SDS011;54880;50.986;6.990;2023-12-14T07:41:57;51.80;;;18.73;;
68089;SDS011;54880;50.986;6.990;2023-12-14T07:44:23;46.27;;;16.07;;
68089;SDS011;54880;50.986;6.990;2023-12-14T07:46:50;47.22;;;17.13;;
68089;SDS011;54880;50.986;6.990;2023-12-14T07:49:15;46.23;;;16.43;;
68089;SDS011;54880;50.986;6.990;2023-12-14T07:51:40;50.40;;;17.00;;
68089;SDS011;54880;50.986;6.990;2023-12-14T07:54:06;43.70;;;17.37;;
68089;SDS011;54880;50.986;6.990;2023-12-14T07:56:31;45.63;;;17.17;;
68089;SDS011;54880;50.986;6.990;2023-12-14T07:58:58;43.72;;;16.95;;
68089;SDS011;54880;50.986;6.990;2023-12-14T08:01:23;45.33;;;16.53;;
68089;SDS011;54880;50.986;6.990;2023-12-14T08:03:48;44.00;;;17.23;;
68089;SDS011;54880;50.986;6.990;2023-12-14T08:06:14;43.27;;;16.80;;
68089;SDS011;54880;50.986;6.990;2023-12-14T08:08:39;41.97;;;15.83;;
68089;SDS011;54880;50.986;6.990;2023-12-14T08:11:04;48.33;;;17.03;;
68089;SDS011;54880;50.986;6.990;2023-12-14T08:13:30;41.63;;;15.90;;
68089;SDS011;54880;50.986;6.990;2023-12-14T08:15:55;45.45;;;16.90;;
68089;SDS011;54880;50.986;6.990;2023-12-14T08:18:20;48.78;;;17.88;;
68089;SDS011;54880;50.986;6.990;2023-12-14T08:20:46;43.57;;;17.57;;
68089;SDS011;54880;50.986;6.990;2023-12-14T08:23:11;46.22;;;18.45;;
68089;SDS011;54880;50.986;6.990;2023-12-14T08:25:36;46.67;;;17.63;;
68089;SDS011;54880;50.986;6.990;2023-12-14T08:28:01;47.43;;;17.67;;
68089;SDS011;54880;50.986;6.990;2023-12-14T08:30:27;44.55;;;17.45;;
68089;SDS011;54880;50.986;6.990;2023-12-14T08:32:52;45.30;;;17.15;;
68089;SDS011;54880;50.986;6.990;2023-12-14T08:35:17;50.42;;;17.63;;
68089;SDS011;54880;50.986;6.990;2023-12-14T08:37:42;49.10;;;16.10;;
68089;SDS011;54880;50.986;6.990;2023-12-14T08:40:09;40.83;;;14.98;;
68089;SDS011;54880;50.986;6.990;2023-12-14T08:42:34;45.30;;;17.45;;
68089;SDS011;54880;50.986;6.990;2023-12-14T08:45:00;47.83;;;18.03;;
68089;SDS011;54880;50.986;6.990;2023-12-14T08:47:25;44.70;;;15.90;;
68089;SDS011;54880;50.986;6.990;2023-12-14T08:49:50;43.33;;;15.40;;
68089;SDS011;54880;50.986;6.990;2023-12-14T08:52:16;47.10;;;16.20;;
68089;SDS011;54880;50.986;6.990;2023-12-14T08:54:42;44.00;;;15.23;;
68089;SDS011;54880;50.986;6.990;2023-12-14T08:57:09;46.03;;;15.85;;
68089;SDS011;54880;50.986;6.990;2023-12-14T08:59:34;42.07;;;14.57;;
68089;SDS011;54880;50.986;6.990;2023-12-14T09:02:00;42.63;;;14.67;;
68089;SDS011;54880;50.986;6.990;2023-12-14T09:04:25;41.80;;;14.67;;
68089;SDS011;54880;50.986;6.990;2023-12-14T09:06:50;42.83;;;14.63;;
68089;SDS011;54880;50.986;6.990;2023-12-14T09:09:16;46.58;;;15.25;;
68089;SDS011;54880;50.986;6.990;2023-12-14T09:11:43;41.70;;;13.77;;
68089;SDS011;54880;50.986;6.990;2023-12-14T09:14:09;42.47;;;13.93;;
68089;SDS011;54880;50.986;6.990;2023-12-14T09:16:34;36.23;;;12.63;;
68089;SDS011;54880;50.986;6.990;2023-12-14T09:18:59;34.63;;;12.27;;
68089;SDS011;54880;50.986;6.990;2023-12-14T09:21:24;39.40;;;12.83;;
68089;SDS011;54880;50.986;6.990;2023-12-14T09:23:50;37.53;;;13.43;;
68089;SDS011;54880;50.986;6.990;2023-12-14T09:26:15;39.20;;;11.77;;
68089;SDS011;54880;50.986;6.990;2023-12-14T09:28:40;39.20;;;12.93;;
68089;SDS011;54880;50.986;6.990;2023-12-14T09:31:07;37.67;;;13.35;;
68089;SDS011;54880;50.986;6.990;2023-12-14T09:33:32;37.90;;;12.77;;
68089;SDS011;54880;50.986;6.990;2023-12-14T09:35:58;41.53;;;13.57;;
68089;SDS011;54880;50.986;6.990;2023-12-14T09:38:23;36.70;;;12.93;;
68089;SDS011;54880;50.986;6.990;2023-12-14T09:40:48;35.57;;;12.67;;
68089;SDS011;54880;50.986;6.990;2023-12-14T09:43:13;37.60;;;13.07;;
68089;SDS011;54880;50.986;6.990;2023-12-14T09:45:39;40.30;;;13.40;;
68089;SDS011;54880;50.986;6.990;2023-12-14T09:48:07;45.90;;;15.52;;
68089;SDS011;54880;50.986;6.990;2023-12-14T09:50:34;47.10;;;14.68;;
68089;SDS011;54880;50.986;6.990;2023-12-14T09:53:00;50.30;;;16.77;;
68089;SDS011;54880;50.986;6.990;2023-12-14T09:55:26;45.75;;;15.50;;
68089;SDS011;54880;50.986;6.990;2023-12-14T09:57:51;50.00;;;17.97;;
68089;SDS011;54880;50.986;6.990;2023-12-14T10:00:36;49.53;;;18.07;;
68089;SDS011;54880;50.986;6.990;2023-12-14T10:05:45;61.40;;;19.42;;
68089;SDS011;54880;50.986;6.990;2023-12-14T10:08:10;54.47;;;19.50;;
68089;SDS011;54880;50.986;6.990;2023-12-14T10:10:35;55.63;;;19.03;;
68089;SDS011;54880;50.986;6.990;2023-12-14T10:13:01;53.67;;;19.70;;
68089;SDS011;54880;50.986;6.990;2023-12-14T10:15:26;60.50;;;20.60;;
68089;SDS011;54880;50.986;6.990;2023-12-14T10:17:52;56.57;;;18.47;;
68089;SDS011;54880;50.986;6.990;2023-12-14T10:20:22;52.47;;;19.98;;
68089;SDS011;54880;50.986;6.990;2023-12-14T10:22:48;56.63;;;21.77;;
68089;SDS011;54880;50.986;6.990;2023-12-14T10:25:14;58.03;;;20.67;;
68089;SDS011;54880;50.986;6.990;2023-12-14T10:27:39;59.17;;;20.93;;
68089;SDS011;54880;50.986;6.990;2023-12-14T10:30:06;51.17;;;20.37;;
68089;SDS011;54880;50.986;6.990;2023-12-14T10:32:31;59.40;;;20.63;;
68089;SDS011;54880;50.986;6.990;2023-12-14T10:34:57;52.58;;;20.52;;
68089;SDS011;54880;50.986;6.990;2023-12-14T10:37:23;54.73;;;20.83;;
68089;SDS011;54880;50.986;6.990;2023-12-14T10:39:50;49.17;;;17.65;;
68089;SDS011;54880;50.986;6.990;2023-12-14T10:42:18;54.58;;;20.75;;
68089;SDS011;54880;50.986;6.990;2023-12-14T10:44:43;57.27;;;21.07;;
68089;SDS011;54880;50.986;6.990;2023-12-14T10:47:09;51.60;;;19.97;;
68089;SDS011;54880;50.986;6.990;2023-12-14T10:49:34;56.38;;;21.23;;
68089;SDS011;54880;50.986;6.990;2023-12-14T10:52:00;59.60;;;21.53;;
68089;SDS011;54880;50.986;6.990;2023-12-14T10:54:27;54.35;;;21.17;;
68089;SDS011;54880;50.986;6.990;2023-12-14T10:56:56;57.50;;;20.97;;
68089;SDS011;54880;50.986;6.990;2023-12-14T10:59:25;58.58;;;21.05;;
68089;SDS011;54880;50.986;6.990;2023-12-14T11:01:54;50.83;;;19.77;;
68089;SDS011;54880;50.986;6.990;2023-12-14T11:04:21;54.28;;;20.83;;
68089;SDS011;54880;50.986;6.990;2023-12-14T11:06:46;50.95;;;18.35;;
68089;SDS011;54880;50.986;6.990;2023-12-14T11:09:13;54.47;;;20.80;;
68089;SDS011;54880;50.986;6.990;2023-12-14T11:14:21;55.08;;;21.73;;
68089;SDS011;54880;50.986;6.990;2023-12-14T11:16:47;52.97;;;21.02;;
68089;SDS011;54880;50.986;6.990;2023-12-14T11:19:34;56.60;;;20.77;;
68089;SDS011;54880;50.986;6.990;2023-12-14T11:24:34;50.47;;;19.77;;
68089;SDS011;54880;50.986;6.990;2023-12-14T11:27:03;50.08;;;19.25;;
68089;SDS011;54880;50.986;6.990;2023-12-14T11:29:29;50.65;;;19.58;;
68089;SDS011;54880;50.986;6.990;2023-12-14T11:31:57;49.50;;;19.10;;
68089;SDS011;54880;50.986;6.990;2023-12-14T11:34:26;50.03;;;18.57;;
68089;SDS011;54880;50.986;6.990;2023-12-14T11:36:51;51.03;;;19.95;;
68089;SDS011;54880;50.986;6.990;2023-12-14T11:39:17;53.40;;;21.97;;
68089;SDS011;54880;50.986;6.990;2023-12-14T11:41:42;50.07;;;19.27;;
68089;SDS011;54880;50.986;6.990;2023-12-14T11:44:07;48.57;;;20.03;;
68089;SDS011;54880;50.986;6.990;2023-12-14T11:46:32;52.43;;;20.70;;
68089;SDS011;54880;50.986;6.990;2023-12-14T11:48:58;52.53;;;19.43;;
68089;SDS011;54880;50.986;6.990;2023-12-14T11:51:24;48.60;;;18.35;;
68089;SDS011;54880;50.986;6.990;2023-12-14T11:53:51;50.43;;;18.70;;
68089;SDS011;54880;50.986;6.990;2023-12-14T11:56:17;43.92;;;17.30;;
68089;SDS011;54880;50.986;6.990;2023-12-14T11:58:43;45.93;;;16.83;;
68089;SDS011;54880;50.986;6.990;2023-12-14T12:01:15;44.35;;;18.05;;
68089;SDS011;54880;50.986;6.990;2023-12-14T12:03:41;44.13;;;16.85;;
68089;SDS011;54880;50.986;6.990;2023-12-14T12:06:09;45.35;;;16.30;;
68089;SDS011;54880;50.986;6.990;2023-12-14T12:08:44;43.00;;;17.30;;
68089;SDS011;54880;50.986;6.990;2023-12-14T12:11:09;41.33;;;16.30;;
68089;SDS011;54880;50.986;6.990;2023-12-14T12:13:34;40.43;;;15.83;;
68089;SDS011;54880;50.986;6.990;2023-12-14T12:16:00;42.37;;;15.87;;
68089;SDS011;54880;50.986;6.990;2023-12-14T12:18:25;40.60;;;15.87;;
68089;SDS011;54880;50.986;6.990;2023-12-14T12:20:51;40.53;;;16.73;;
68089;SDS011;54880;50.986;6.990;2023-12-14T12:23:17;39.70;;;16.02;;
68089;SDS011;54880;50.986;6.990;2023-12-14T12:25:43;33.80;;;13.95;;
68089;SDS011;54880;50.986;6.990;2023-12-14T12:28:09;44.80;;;16.50;;
68089;SDS011;54880;50.986;6.990;2023-12-14T12:30:34;40.10;;;15.53;;
68089;SDS011;54880;50.986;6.990;2023-12-14T12:32:59;38.40;;;15.60;;
68089;SDS011;54880;50.986;6.990;2023-12-14T12:35:24;38.70;;;15.50;;
68089;SDS011;54880;50.986;6.990;2023-12-14T12:37:50;39.13;;;16.10;;
68089;SDS011;54880;50.986;6.990;2023-12-14T12:40:19;39.97;;;15.77;;
68089;SDS011;54880;50.986;6.990;2023-12-14T12:42:45;43.30;;;15.77;;
68089;SDS011;54880;50.986;6.990;2023-12-14T12:45:10;38.27;;;14.70;;
68089;SDS011;54880;50.986;6.990;2023-12-14T12:47:35;33.85;;;14.10;;
68089;SDS011;54880;50.986;6.990;2023-12-14T12:50:01;35.47;;;13.65;;
68089;SDS011;54880;50.986;6.990;2023-12-14T12:52:26;31.92;;;13.32;;
68089;SDS011;54880;50.986;6.990;2023-12-14T12:54:51;34.37;;;14.30;;
68089;SDS011;54880;50.986;6.990;2023-12-14T12:57:17;29.37;;;12.23;;
68089;SDS011;54880;50.986;6.990;2023-12-14T12:59:42;29.60;;;12.53;;
68089;SDS011;54880;50.986;6.990;2023-12-14T13:02:08;28.03;;;12.60;;
68089;SDS011;54880;50.986;6.990;2023-12-14T13:04:33;34.00;;;15.60;;
68089;SDS011;54880;50.986;6.990;2023-12-14T13:06:58;26.13;;;11.03;;
68089;SDS011;54880;50.986;6.990;2023-12-14T13:09:27;28.92;;;11.40;;
68089;SDS011;54880;50.986;6.990;2023-12-14T13:11:52;24.47;;;10.17;;
68089;SDS011;54880;50.986;6.990;2023-12-14T13:14:17;28.80;;;11.20;;
68089;SDS011;54880;50.986;6.990;2023-12-14T13:16:43;26.87;;;11.77;;
68089;SDS011;54880;50.986;6.990;2023-12-14T13:19:08;27.02;;;10.65;;
68089;SDS011;54880;50.986;6.990;2023-12-14T13:21:34;27.92;;;11.82;;
68089;SDS011;54880;50.986;6.990;2023-12-14T13:24:00;30.13;;;12.25;;
68089;SDS011;54880;50.986;6.990;2023-12-14T13:26:25;21.80;;;9.77;;
68089;SDS011;54880;50.986;6.990;2023-12-14T13:28:51;21.10;;;9.30;;
68089;SDS011;54880;50.986;6.990;2023-12-14T13:31:16;25.33;;;9.00;;
68089;SDS011;54880;50.986;6.990;2023-12-14T13:33:41;22.37;;;9.13;;
68089;SDS011;54880;50.986;6.990;2023-12-14T13:36:07;19.57;;;8.47;;
68089;SDS011;54880;50.986;6.990;2023-12-14T13:38:33;24.42;;;11.18;;
68089;SDS011;54880;50.986;6.990;2023-12-14T13:41:00;20.92;;;9.60;;
68089;SDS011;54880;50.986;6.990;2023-12-14T13:43:25;19.33;;;8.47;;
68089;SDS011;54880;50.986;6.990;2023-12-14T13:45:50;19.27;;;7.97;;
68089;SDS011;54880;50.986;6.990;2023-12-14T13:48:18;18.23;;;7.70;;
68089;SDS011;54880;50.986;6.990;2023-12-14T13:50:44;17.07;;;7.53;;
68089;SDS011;54880;50.986;6.990;2023-12-14T13:53:09;14.67;;;6.13;;
68089;SDS011;54880;50.986;6.990;2023-12-14T13:55:35;16.02;;;6.45;;
68089;SDS011;54880;50.986;6.990;2023-12-14T13:58:00;17.60;;;7.80;;
68089;SDS011;54880;50.986;6.990;2023-12-14T14:00:26;16.80;;;7.10;;
68089;SDS011;54880;50.986;6.990;2023-12-14T14:02:51;17.23;;;6.97;;
68089;SDS011;54880;50.986;6.990;2023-12-14T14:05:16;15.17;;;6.43;;
68089;SDS011;54880;50.986;6.990;2023-12-14T14:07:42;18.57;;;6.73;;
68089;SDS011;54880;50.986;6.990;2023-12-14T14:10:07;17.83;;;7.33;;
68089;SDS011;54880;50.986;6.990;2023-12-14T14:12:32;15.50;;;6.47;;
68089;SDS011;54880;50.986;6.990;2023-12-14T14:14:58;15.97;;;6.60;;
68089;SDS011;54880;50.986;6.990;2023-12-14T14:17:23;14.87;;;6.00;;
68089;SDS011;54880;50.986;6.990;2023-12-14T14:19:48;17.13;;;7.30;;
68089;SDS011;54880;50.986;6.990;2023-12-14T14:22:13;17.57;;;6.90;;